sensor_id;sensor_type;location;lat;lon;timestamp;pressure;altitude;pressure_sealevel;temperature;humidity
9695;BME280;4690;52.422;13.486;2022-12-05T00:04:13;101589.91;;;4.21;96.40
9695;BME280;4690;52.422;13.486;2022-12-05T00:06:40;101575.31;;;4.14;96.99
9695;BME280;4690;52.422;13.486;2022-12-05T00:09:08;101578.22;;;4.21;97.09
9695;BME280;4690;52.422;13.486;2022-12-05T00:11:36;101580.25;;;4.27;96.36
9695;BME280;4690;52.422;13.486;2022-12-05T00:14:04;101578.38;;;4.27;96.09
9695;BME280;4690;52.422;13.486;2022-12-05T00:16:32;101574.84;;;4.35;95.91
9695;BME280;4690;52.422;13.486;2022-12-05T00:18:59;101584.16;;;4.24;96.33
9695;BME280;4690;52.422;13.486;2022-12-05T00:21:29;101577.00;;;4.15;97.06
9695;BME280;4690;52.422;13.486;2022-12-05T00:23:58;101582.63;;;4.30;96.83
9695;BME280;4690;52.422;13.486;2022-12-05T00:26:24;101591.66;;;4.39;96.20
9695;BME280;4690;52.422;13.486;2022-12-05T00:28:51;101586.56;;;4.36;96.43
9695;BME280;4690;52.422;13.486;2022-12-05T00:31:21;101580.78;;;4.39;96.09
9695;BME280;4690;52.422;13.486;2022-12-05T00:33:48;101588.78;;;4.40;95.98
9695;BME280;4690;52.422;13.486;2022-12-05T00:36:22;101591.97;;;4.36;96.31
9695;BME280;4690;52.422;13.486;2022-12-05T00:38:48;101591.47;;;4.32;96.75
9695;BME280;4690;52.422;13.486;2022-12-05T00:41:21;101590.59;;;4.23;96.75
9695;BME280;4690;52.422;13.486;2022-12-05T00:43:49;101598.75;;;4.32;96.78
9695;BME280;4690;52.422;13.486;2022-12-05T00:46:20;101593.13;;;4.25;97.14
9695;BME280;4690;52.422;13.486;2022-12-05T00:48:47;101593.34;;;4.32;97.10
9695;BME280;4690;52.422;13.486;2022-12-05T00:51:22;101594.34;;;4.31;96.78
9695;BME280;4690;52.422;13.486;2022-12-05T00:53:49;101579.00;;;4.05;97.85
9695;BME280;4690;52.422;13.486;2022-12-05T00:56:21;101584.28;;;4.15;98.02
9695;BME280;4690;52.422;13.486;2022-12-05T00:58:48;101591.75;;;4.13;97.69
9695;BME280;4690;52.422;13.486;2022-12-05T01:01:19;101585.69;;;4.27;97.80
9695;BME280;4690;52.422;13.486;2022-12-05T01:03:46;101581.66;;;4.31;96.55
9695;BME280;4690;52.422;13.486;2022-12-05T01:06:15;101574.16;;;4.33;96.78
9695;BME280;4690;52.422;13.486;2022-12-05T01:08:41;101579.78;;;4.32;96.85
9695;BME280;4690;52.422;13.486;2022-12-05T01:11:14;101582.19;;;4.43;96.13
9695;BME280;4690;52.422;13.486;2022-12-05T01:13:41;101576.66;;;4.18;96.57
9695;BME280;4690;52.422;13.486;2022-12-05T01:16:23;101588.91;;;4.22;97.16
9695;BME280;4690;52.422;13.486;2022-12-05T01:18:49;101580.78;;;4.39;96.72
9695;BME280;4690;52.422;13.486;2022-12-05T01:21:16;101574.16;;;4.33;97.02
9695;BME280;4690;52.422;13.486;2022-12-05T01:23:42;101582.84;;;4.37;96.24
9695;BME280;4690;52.422;13.486;2022-12-05T01:26:11;101573.69;;;4.38;96.62
9695;BME280;4690;52.422;13.486;2022-12-05T01:28:38;101570.97;;;4.38;96.77
9695;BME280;4690;52.422;13.486;2022-12-05T01:31:36;101569.44;;;4.43;96.70
9695;BME280;4690;52.422;13.486;2022-12-05T01:34:06;101566.75;;;4.52;95.99
9695;BME280;4690;52.422;13.486;2022-12-05T01:36:32;101567.44;;;4.54;95.42
9695;BME280;4690;52.422;13.486;2022-12-05T01:38:59;101569.13;;;4.55;95.59
9695;BME280;4690;52.422;13.486;2022-12-05T01:41:29;101561.00;;;4.63;96.16
9695;BME280;4690;52.422;13.486;2022-12-05T01:46:37;101566.06;;;4.49;95.66
9695;BME280;4690;52.422;13.486;2022-12-05T01:49:12;101559.78;;;4.41;95.89
9695;BME280;4690;52.422;13.486;2022-12-05T01:51:42;101557.88;;;4.33;96.22
9695;BME280;4690;52.422;13.486;2022-12-05T01:54:10;101545.31;;;4.24;97.07
9695;BME280;4690;52.422;13.486;2022-12-05T01:56:39;101554.50;;;4.23;97.45
9695;BME280;4690;52.422;13.486;2022-12-05T01:59:09;101561.78;;;4.31;96.48
9695;BME280;4690;52.422;13.486;2022-12-05T02:01:36;101555.88;;;4.35;96.95
9695;BME280;4690;52.422;13.486;2022-12-05T02:04:03;101550.44;;;4.35;97.41
9695;BME280;4690;52.422;13.486;2022-12-05T02:06:31;101556.34;;;4.31;97.56
9695;BME280;4690;52.422;13.486;2022-12-05T02:08:57;101553.00;;;4.37;96.58
9695;BME280;4690;52.422;13.486;2022-12-05T02:11:27;101560.28;;;4.28;97.17
9695;BME280;4690;52.422;13.486;2022-12-05T02:14:32;101559.25;;;4.29;97.61
9695;BME280;4690;52.422;13.486;2022-12-05T02:21:10;101558.09;;;4.40;97.32
9695;BME280;4690;52.422;13.486;2022-12-05T02:23:23;101554.19;;;4.42;96.58
9695;BME280;4690;52.422;13.486;2022-12-05T02:26:38;101558.44;;;4.45;96.34
9695;BME280;4690;52.422;13.486;2022-12-05T02:39:07;101551.63;;;4.41;97.30
9695;BME280;4690;52.422;13.486;2022-12-05T02:41:48;101550.63;;;4.34;97.28
9695;BME280;4690;52.422;13.486;2022-12-05T02:44:31;101550.94;;;4.39;96.74
9695;BME280;4690;52.422;13.486;2022-12-05T02:46:58;101545.50;;;4.31;97.49
9695;BME280;4690;52.422;13.486;2022-12-05T02:49:32;101547.22;;;4.40;97.30
9695;BME280;4690;52.422;13.486;2022-12-05T02:52:03;101548.91;;;4.41;97.49
9695;BME280;4690;52.422;13.486;2022-12-05T02:54:36;101541.09;;;4.30;97.56
9695;BME280;4690;52.422;13.486;2022-12-05T02:57:04;101537.22;;;4.32;97.96
9695;BME280;4690;52.422;13.486;2022-12-05T02:59:30;101541.44;;;4.35;97.79
9695;BME280;4690;52.422;13.486;2022-12-05T03:01:56;101532.47;;;4.34;97.73
9695;BME280;4690;52.422;13.486;2022-12-05T03:04:24;101536.03;;;4.43;98.16
9695;BME280;4690;52.422;13.486;2022-12-05T03:07:01;101532.81;;;4.39;97.17
9695;BME280;4690;52.422;13.486;2022-12-05T03:09:36;101533.13;;;4.36;98.24
9695;BME280;4690;52.422;13.486;2022-12-05T03:12:24;101536.22;;;4.49;97.30
9695;BME280;4690;52.422;13.486;2022-12-05T03:15:18;101537.41;;;4.47;97.10
9695;BME280;4690;52.422;13.486;2022-12-05T03:18:06;101539.75;;;4.42;97.50
9695;BME280;4690;52.422;13.486;2022-12-05T03:20:42;101535.22;;;4.51;96.56
9695;BME280;4690;52.422;13.486;2022-12-05T03:23:29;101536.88;;;4.43;97.15
9695;BME280;4690;52.422;13.486;2022-12-05T03:29:28;101533.34;;;4.43;97.91
9695;BME280;4690;52.422;13.486;2022-12-05T03:32:10;101534.53;;;4.48;97.47
9695;BME280;4690;52.422;13.486;2022-12-05T03:37:40;101541.63;;;4.41;97.01
9695;BME280;4690;52.422;13.486;2022-12-05T03:46:05;101529.44;;;4.45;96.94
9695;BME280;4690;52.422;13.486;2022-12-05T03:51:15;101537.94;;;4.51;97.81
9695;BME280;4690;52.422;13.486;2022-12-05T03:53:58;101536.03;;;4.43;97.60
9695;BME280;4690;52.422;13.486;2022-12-05T03:56:50;101536.03;;;4.43;97.76
9695;BME280;4690;52.422;13.486;2022-12-05T04:02:04;101534.16;;;4.43;98.34
9695;BME280;4690;52.422;13.486;2022-12-05T04:04:41;101534.00;;;4.37;97.83
9695;BME280;4690;52.422;13.486;2022-12-05T04:07:14;101537.03;;;4.42;97.84
9695;BME280;4690;52.422;13.486;2022-12-05T04:09:54;101531.47;;;4.52;97.27
9695;BME280;4690;52.422;13.486;2022-12-05T04:12:27;101537.06;;;4.50;97.43
9695;BME280;4690;52.422;13.486;2022-12-05T04:15:05;101533.50;;;4.58;96.64
9695;BME280;4690;52.422;13.486;2022-12-05T04:17:59;101540.13;;;4.63;96.74
9695;BME280;4690;52.422;13.486;2022-12-05T04:20:31;101538.25;;;4.64;96.70
9695;BME280;4690;52.422;13.486;2022-12-05T04:23:17;101537.28;;;4.73;96.96
9695;BME280;4690;52.422;13.486;2022-12-05T04:26:17;101533.66;;;4.64;96.36
9695;BME280;4690;52.422;13.486;2022-12-05T04:28:57;101523.84;;;4.63;95.95
9695;BME280;4690;52.422;13.486;2022-12-05T04:31:44;101530.31;;;4.62;95.99
9695;BME280;4690;52.422;13.486;2022-12-05T04:34:14;101524.53;;;4.65;97.07
9695;BME280;4690;52.422;13.486;2022-12-05T04:36:53;101532.69;;;4.65;96.48
9695;BME280;4690;52.422;13.486;2022-12-05T04:39:43;101536.38;;;4.64;96.05
9695;BME280;4690;52.422;13.486;2022-12-05T04:42:20;101534.34;;;4.58;96.91
9695;BME280;4690;52.422;13.486;2022-12-05T04:45:05;101523.84;;;4.71;96.01
9695;BME280;4690;52.422;13.486;2022-12-05T04:47:40;101526.91;;;4.85;96.30
9695;BME280;4690;52.422;13.486;2022-12-05T04:50:11;101536.41;;;4.81;95.68
9695;BME280;4690;52.422;13.486;2022-12-05T04:52:39;101530.63;;;4.76;95.87
9695;BME280;4690;52.422;13.486;2022-12-05T04:55:14;101532.00;;;4.80;95.47
9695;BME280;4690;52.422;13.486;2022-12-05T04:58:15;101533.88;;;4.71;95.64
9695;BME280;4690;52.422;13.486;2022-12-05T05:01:09;101534.38;;;4.75;95.30
9695;BME280;4690;52.422;13.486;2022-12-05T05:03:57;101530.13;;;4.72;95.92
9695;BME280;4690;52.422;13.486;2022-12-05T05:06:24;101542.00;;;4.63;96.25
9695;BME280;4690;52.422;13.486;2022-12-05T05:08:56;101532.00;;;4.63;96.17
9695;BME280;4690;52.422;13.486;2022-12-05T05:11:29;101534.03;;;4.69;96.85
9695;BME280;4690;52.422;13.486;2022-12-05T05:13:55;101542.84;;;4.63;96.47
9695;BME280;4690;52.422;13.486;2022-12-05T05:16:36;101535.19;;;4.59;96.32
9695;BME280;4690;52.422;13.486;2022-12-05T05:19:03;101540.47;;;4.60;95.96
9695;BME280;4690;52.422;13.486;2022-12-05T05:21:33;101533.03;;;4.62;97.08
9695;BME280;4690;52.422;13.486;2022-12-05T05:24:00;101547.28;;;4.56;96.23
9695;BME280;4690;52.422;13.486;2022-12-05T05:26:27;101534.34;;;4.58;96.57
9695;BME280;4690;52.422;13.486;2022-12-05T05:28:54;101537.91;;;4.67;96.34
9695;BME280;4690;52.422;13.486;2022-12-05T05:31:20;101535.72;;;4.62;96.62
9695;BME280;4690;52.422;13.486;2022-12-05T05:33:55;101537.59;;;4.62;96.06
9695;BME280;4690;52.422;13.486;2022-12-05T05:36:24;101532.66;;;4.57;96.95
9695;BME280;4690;52.422;13.486;2022-12-05T05:38:54;101539.94;;;4.48;96.35
9695;BME280;4690;52.422;13.486;2022-12-05T05:41:25;101533.34;;;4.43;97.29
9695;BME280;4690;52.422;13.486;2022-12-05T05:43:52;101537.59;;;4.54;96.93
9695;BME280;4690;52.422;13.486;2022-12-05T05:46:22;101545.56;;;4.55;97.57
9695;BME280;4690;52.422;13.486;2022-12-05T05:48:49;101539.97;;;4.57;96.84
9695;BME280;4690;52.422;13.486;2022-12-05T05:51:17;101537.06;;;4.58;96.79
9695;BME280;4690;52.422;13.486;2022-12-05T05:53:44;101535.56;;;4.72;96.50
9695;BME280;4690;52.422;13.486;2022-12-05T05:56:14;101537.06;;;4.50;96.13
9695;BME280;4690;52.422;13.486;2022-12-05T05:58:40;101541.81;;;4.48;96.61
9695;BME280;4690;52.422;13.486;2022-12-05T06:01:08;101539.94;;;4.48;96.63
9695;BME280;4690;52.422;13.486;2022-12-05T06:03:35;101542.31;;;4.43;97.01
9695;BME280;4690;52.422;13.486;2022-12-05T06:06:06;101548.41;;;4.37;97.52
9695;BME280;4690;52.422;13.486;2022-12-05T06:08:36;101543.66;;;4.47;97.79
9695;BME280;4690;52.422;13.486;2022-12-05T06:11:08;101548.09;;;4.57;96.54
9695;BME280;4690;52.422;13.486;2022-12-05T06:13:34;101542.84;;;4.63;96.02
9695;BME280;4690;52.422;13.486;2022-12-05T06:16:00;101547.59;;;4.69;96.88
9695;BME280;4690;52.422;13.486;2022-12-05T06:18:27;101550.81;;;4.81;96.68
9695;BME280;4690;52.422;13.486;2022-12-05T06:20:57;101554.06;;;4.85;95.83
9695;BME280;4690;52.422;13.486;2022-12-05T06:23:24;101559.84;;;4.90;95.39
9695;BME280;4690;52.422;13.486;2022-12-05T06:25:52;101559.50;;;4.85;95.15
9695;BME280;4690;52.422;13.486;2022-12-05T06:28:19;101552.03;;;4.79;95.39
9695;BME280;4690;52.422;13.486;2022-12-05T06:30:46;101555.94;;;4.76;95.46
9695;BME280;4690;52.422;13.486;2022-12-05T06:33:12;101560.69;;;4.74;95.63
9695;BME280;4690;52.422;13.486;2022-12-05T06:35:38;101554.41;;;4.82;95.59
9695;BME280;4690;52.422;13.486;2022-12-05T06:38:06;101557.28;;;4.88;95.12
9695;BME280;4690;52.422;13.486;2022-12-05T06:40:32;101561.88;;;4.88;94.78
9695;BME280;4690;52.422;13.486;2022-12-05T06:42:58;101560.69;;;4.82;95.02
9695;BME280;4690;52.422;13.486;2022-12-05T06:45:25;101568.16;;;4.80;95.15
9695;BME280;4690;52.422;13.486;2022-12-05T06:47:51;101576.63;;;4.69;94.65
9695;BME280;4690;52.422;13.486;2022-12-05T06:50:18;101569.16;;;4.63;95.82
9695;BME280;4690;52.422;13.486;2022-12-05T06:52:44;101574.75;;;4.69;96.22
9695;BME280;4690;52.422;13.486;2022-12-05T06:55:10;101574.59;;;4.71;95.93
9695;BME280;4690;52.422;13.486;2022-12-05T06:57:36;101574.41;;;4.81;95.45
9695;BME280;4690;52.422;13.486;2022-12-05T07:00:03;101574.41;;;4.81;95.03
9695;BME280;4690;52.422;13.486;2022-12-05T07:02:52;101571.38;;;4.84;94.64
9695;BME280;4690;52.422;13.486;2022-12-05T07:05:18;101577.97;;;4.81;95.54
9695;BME280;4690;52.422;13.486;2022-12-05T07:07:45;101578.50;;;4.85;95.41
9695;BME280;4690;52.422;13.486;2022-12-05T07:10:11;101574.41;;;4.81;94.85
9695;BME280;4690;52.422;13.486;2022-12-05T07:12:37;101582.69;;;4.55;95.65
9695;BME280;4690;52.422;13.486;2022-12-05T07:15:03;101583.75;;;4.62;96.05
9695;BME280;4690;52.422;13.486;2022-12-05T07:17:29;101590.19;;;4.69;96.14
9695;BME280;4690;52.422;13.486;2022-12-05T07:19:55;101590.03;;;4.70;96.16
9695;BME280;4690;52.422;13.486;2022-12-05T07:22:22;101597.31;;;4.78;96.11
9695;BME280;4690;52.422;13.486;2022-12-05T07:24:50;101594.25;;;4.81;95.01
9695;BME280;4690;52.422;13.486;2022-12-05T07:27:17;101586.47;;;4.78;95.11
9695;BME280;4690;52.422;13.486;2022-12-05T07:29:43;101600.91;;;4.79;95.17
9695;BME280;4690;52.422;13.486;2022-12-05T07:32:09;101592.06;;;4.77;95.38
9695;BME280;4690;52.422;13.486;2022-12-05T07:34:35;101589.38;;;4.85;95.44
9695;BME280;4690;52.422;13.486;2022-12-05T07:37:03;101588.84;;;4.81;96.08
9695;BME280;4690;52.422;13.486;2022-12-05T07:39:29;101589.50;;;4.75;95.39
9695;BME280;4690;52.422;13.486;2022-12-05T07:41:55;101598.00;;;4.80;94.76
9695;BME280;4690;52.422;13.486;2022-12-05T07:44:21;101593.44;;;4.81;95.06
9695;BME280;4690;52.422;13.486;2022-12-05T07:46:47;101597.66;;;4.83;95.52
9695;BME280;4690;52.422;13.486;2022-12-05T07:49:12;101601.22;;;4.84;95.31
9695;BME280;4690;52.422;13.486;2022-12-05T07:51:40;101593.59;;;4.79;95.44
9695;BME280;4690;52.422;13.486;2022-12-05T07:54:06;101588.69;;;4.83;95.11
9695;BME280;4690;52.422;13.486;2022-12-05T07:56:32;101580.69;;;4.89;95.14
9695;BME280;4690;52.422;13.486;2022-12-05T07:58:58;101592.41;;;4.74;94.81
9695;BME280;4690;52.422;13.486;2022-12-05T08:01:29;101590.53;;;4.74;95.24
9695;BME280;4690;52.422;13.486;2022-12-05T08:03:57;101593.44;;;4.81;95.94
9695;BME280;4690;52.422;13.486;2022-12-05T08:06:27;101595.16;;;4.82;95.22
9695;BME280;4690;52.422;13.486;2022-12-05T08:08:54;101600.22;;;4.85;94.92
9695;BME280;4690;52.422;13.486;2022-12-05T08:11:30;101594.97;;;4.83;95.52
9695;BME280;4690;52.422;13.486;2022-12-05T08:13:57;101599.91;;;4.88;95.57
9695;BME280;4690;52.422;13.486;2022-12-05T08:16:27;101593.94;;;4.92;95.47
9695;BME280;4690;52.422;13.486;2022-12-05T08:19:03;101595.66;;;4.85;95.30
9695;BME280;4690;52.422;13.486;2022-12-05T08:21:30;101596.84;;;4.91;94.96
9695;BME280;4690;52.422;13.486;2022-12-05T08:23:57;101603.59;;;4.87;94.66
9695;BME280;4690;52.422;13.486;2022-12-05T08:26:27;101596.13;;;4.72;95.80
9695;BME280;4690;52.422;13.486;2022-12-05T08:29:06;101597.84;;;4.65;96.75
9695;BME280;4690;52.422;13.486;2022-12-05T08:31:39;101595.47;;;4.70;95.84
9695;BME280;4690;52.422;13.486;2022-12-05T08:34:06;101602.59;;;4.71;95.79
9695;BME280;4690;52.422;13.486;2022-12-05T08:36:32;101600.53;;;4.65;96.54
9695;BME280;4690;52.422;13.486;2022-12-05T08:39:02;101593.09;;;4.67;96.14
9695;BME280;4690;52.422;13.486;2022-12-05T08:41:29;101604.28;;;4.72;96.19
9695;BME280;4690;52.422;13.486;2022-12-05T08:43:58;101598.19;;;4.70;95.75
9695;BME280;4690;52.422;13.486;2022-12-05T08:46:24;101597.84;;;4.74;96.06
9695;BME280;4690;52.422;13.486;2022-12-05T08:48:50;101602.75;;;4.70;95.92
9695;BME280;4690;52.422;13.486;2022-12-05T08:51:16;101597.00;;;4.65;96.12
9695;BME280;4690;52.422;13.486;2022-12-05T08:53:42;101596.66;;;4.68;96.61
9695;BME280;4690;52.422;13.486;2022-12-05T08:56:09;101602.94;;;4.77;95.74
9695;BME280;4690;52.422;13.486;2022-12-05T08:58:35;101599.38;;;4.76;95.79
9695;BME280;4690;52.422;13.486;2022-12-05T09:01:11;101598.19;;;4.70;95.81
9695;BME280;4690;52.422;13.486;2022-12-05T09:03:38;101596.13;;;4.81;95.42
9695;BME280;4690;52.422;13.486;2022-12-05T09:06:17;101591.88;;;4.78;94.70
9695;BME280;4690;52.422;13.486;2022-12-05T09:08:43;101594.44;;;4.80;94.83
9695;BME280;4690;52.422;13.486;2022-12-05T09:11:17;101593.09;;;4.84;95.76
9695;BME280;4690;52.422;13.486;2022-12-05T09:13:44;101594.81;;;4.93;95.33
9695;BME280;4690;52.422;13.486;2022-12-05T09:16:14;101600.75;;;4.88;95.49
9695;BME280;4690;52.422;13.486;2022-12-05T09:18:41;101603.81;;;4.93;94.16
9695;BME280;4690;52.422;13.486;2022-12-05T09:21:14;101600.91;;;4.79;95.22
9695;BME280;4690;52.422;13.486;2022-12-05T09:23:41;101602.44;;;4.89;95.59
9695;BME280;4690;52.422;13.486;2022-12-05T09:26:11;101594.09;;;4.75;94.92
9695;BME280;4690;52.422;13.486;2022-12-05T09:28:37;101595.47;;;4.79;95.32
9695;BME280;4690;52.422;13.486;2022-12-05T09:31:10;101594.28;;;4.73;95.52
9695;BME280;4690;52.422;13.486;2022-12-05T09:33:44;101601.56;;;4.72;94.95
9695;BME280;4690;52.422;13.486;2022-12-05T09:36:17;101600.22;;;4.85;95.29
9695;BME280;4690;52.422;13.486;2022-12-05T09:38:44;101595.16;;;4.82;94.98
9695;BME280;4690;52.422;13.486;2022-12-05T09:44:53;101592.56;;;4.64;96.51
9695;BME280;4690;52.422;13.486;2022-12-05T09:50:43;101590.34;;;4.76;95.22
9695;BME280;4690;52.422;13.486;2022-12-05T09:53:33;101593.59;;;4.71;95.86
9695;BME280;4690;52.422;13.486;2022-12-05T09:58:50;101595.16;;;4.82;95.89
9695;BME280;4690;52.422;13.486;2022-12-05T10:12:50;101582.91;;;4.86;94.82
9695;BME280;4690;52.422;13.486;2022-12-05T10:18:34;101585.63;;;4.78;95.83
9695;BME280;4690;52.422;13.486;2022-12-05T10:24:00;101583.75;;;4.94;94.97
9695;BME280;4690;52.422;13.486;2022-12-05T10:26:44;101581.56;;;5.06;95.32
9695;BME280;4690;52.422;13.486;2022-12-05T10:29:35;101580.22;;;5.02;94.56
9695;BME280;4690;52.422;13.486;2022-12-05T10:32:20;101584.81;;;5.10;94.71
9695;BME280;4690;52.422;13.486;2022-12-05T10:34:49;101580.91;;;5.12;94.64
9695;BME280;4690;52.422;13.486;2022-12-05T10:37:21;101574.59;;;5.12;94.28
9695;BME280;4690;52.422;13.486;2022-12-05T10:39:49;101578.53;;;5.01;94.19
9695;BME280;4690;52.422;13.486;2022-12-05T10:42:27;101580.56;;;4.99;94.70
9695;BME280;4690;52.422;13.486;2022-12-05T10:45:02;101579.88;;;5.05;94.81
9695;BME280;4690;52.422;13.486;2022-12-05T10:47:30;101580.22;;;5.19;95.37
9695;BME280;4690;52.422;13.486;2022-12-05T10:50:03;101576.97;;;5.23;95.00
9695;BME280;4690;52.422;13.486;2022-12-05T10:52:30;101582.91;;;5.27;94.70
9695;BME280;4690;52.422;13.486;2022-12-05T10:55:03;101580.88;;;5.21;93.58
9695;BME280;4690;52.422;13.486;2022-12-05T10:57:31;101575.44;;;5.21;93.86
9695;BME280;4690;52.422;13.486;2022-12-05T10:59:57;101574.09;;;5.16;94.78
9695;BME280;4690;52.422;13.486;2022-12-05T11:02:33;101585.31;;;5.13;94.16
9695;BME280;4690;52.422;13.486;2022-12-05T11:05:02;101573.06;;;5.09;94.18
9695;BME280;4690;52.422;13.486;2022-12-05T11:07:31;101570.19;;;5.03;94.13
9695;BME280;4690;52.422;13.486;2022-12-05T11:09:59;101570.69;;;5.06;94.35
9695;BME280;4690;52.422;13.486;2022-12-05T11:15:22;101573.06;;;5.09;95.06
9695;BME280;4690;52.422;13.486;2022-12-05T11:17:52;101569.00;;;5.13;94.54
9695;BME280;4690;52.422;13.486;2022-12-05T11:22:53;101572.06;;;5.27;94.61
9695;BME280;4690;52.422;13.486;2022-12-05T11:25:35;101569.84;;;5.30;94.32
9695;BME280;4690;52.422;13.486;2022-12-05T11:33:33;101570.47;;;5.40;93.90
9695;BME280;4690;52.422;13.486;2022-12-05T11:36:23;101569.97;;;5.37;93.27
9695;BME280;4690;52.422;13.486;2022-12-05T11:38:57;101569.13;;;5.45;93.68
9695;BME280;4690;52.422;13.486;2022-12-05T11:48:01;101570.81;;;5.37;94.58
9695;BME280;4690;52.422;13.486;2022-12-05T11:50:35;101561.13;;;5.43;93.32
9695;BME280;4690;52.422;13.486;2022-12-05T11:55:53;101553.16;;;5.42;93.45
9695;BME280;4690;52.422;13.486;2022-12-05T12:01:36;101558.13;;;5.30;94.29
9695;BME280;4690;52.422;13.486;2022-12-05T12:15:27;101544.00;;;5.34;94.41
9695;BME280;4690;52.422;13.486;2022-12-05T12:25:13;101540.09;;;5.21;94.30
9695;BME280;4690;52.422;13.486;2022-12-05T12:28:07;101546.22;;;5.31;94.88
9695;BME280;4690;52.422;13.486;2022-12-05T12:31:13;101551.28;;;5.42;94.54
9695;BME280;4690;52.422;13.486;2022-12-05T12:36:27;101543.16;;;5.26;94.63
9695;BME280;4690;52.422;13.486;2022-12-05T12:50:23;101525.97;;;5.50;94.16
9695;BME280;4690;52.422;13.486;2022-12-05T13:01:51;101519.84;;;5.48;94.87
9695;BME280;4690;52.422;13.486;2022-12-05T13:05:05;101519.69;;;5.49;94.63
9695;BME280;4690;52.422;13.486;2022-12-05T13:07:38;101519.81;;;5.64;94.05
9695;BME280;4690;52.422;13.486;2022-12-05T13:10:23;101519.78;;;5.72;93.84
9695;BME280;4690;52.422;13.486;2022-12-05T13:12:50;101511.63;;;5.72;93.29
9695;BME280;4690;52.422;13.486;2022-12-05T13:15:30;101515.38;;;5.63;94.05
9695;BME280;4690;52.422;13.486;2022-12-05T13:17:58;101519.22;;;5.77;94.05
9695;BME280;4690;52.422;13.486;2022-12-05T13:20:29;101523.66;;;5.78;93.59
9695;BME280;4690;52.422;13.486;2022-12-05T13:22:57;101521.06;;;5.84;93.15
9695;BME280;4690;52.422;13.486;2022-12-05T13:25:29;101521.75;;;5.87;93.08
9695;BME280;4690;52.422;13.486;2022-12-05T13:28:01;101518.84;;;5.88;93.24
9695;BME280;4690;52.422;13.486;2022-12-05T13:30:28;101518.31;;;5.93;92.86
9695;BME280;4690;52.422;13.486;2022-12-05T13:33:08;101519.59;;;5.66;93.10
9695;BME280;4690;52.422;13.486;2022-12-05T13:35:37;101514.16;;;5.66;93.87
9695;BME280;4690;52.422;13.486;2022-12-05T13:38:40;101518.25;;;5.70;93.40
9695;BME280;4690;52.422;13.486;2022-12-05T13:41:44;101520.91;;;5.86;93.27
9695;BME280;4690;52.422;13.486;2022-12-05T13:50:44;101526.72;;;5.83;92.51
9695;BME280;4690;52.422;13.486;2022-12-05T13:56:13;101521.03;;;5.93;92.64
9695;BME280;4690;52.422;13.486;2022-12-05T13:58:54;101530.63;;;5.80;93.26
9695;BME280;4690;52.422;13.486;2022-12-05T14:03:58;101529.75;;;5.80;93.37
9695;BME280;4690;52.422;13.486;2022-12-05T14:09:01;101526.47;;;5.93;93.45
9695;BME280;4690;52.422;13.486;2022-12-05T14:11:27;101534.16;;;5.89;92.58
9695;BME280;4690;52.422;13.486;2022-12-05T14:13:53;101529.56;;;5.98;93.22
9695;BME280;4690;52.422;13.486;2022-12-05T14:19:30;101540.44;;;5.98;92.56
9695;BME280;4690;52.422;13.486;2022-12-05T14:22:35;101541.13;;;6.00;93.00
9695;BME280;4690;52.422;13.486;2022-12-05T14:34:25;101531.56;;;6.04;92.38
9695;BME280;4690;52.422;13.486;2022-12-05T14:37:22;101526.47;;;6.01;92.51
9695;BME280;4690;52.422;13.486;2022-12-05T14:39:58;101526.28;;;6.02;92.76
9695;BME280;4690;52.422;13.486;2022-12-05T14:42:37;101536.50;;;6.00;92.52
9695;BME280;4690;52.422;13.486;2022-12-05T14:45:32;101536.00;;;5.97;92.20
9695;BME280;4690;52.422;13.486;2022-12-05T14:48:03;101529.34;;;5.99;92.25
9695;BME280;4690;52.422;13.486;2022-12-05T14:56:13;101527.44;;;6.08;92.23
9695;BME280;4690;52.422;13.486;2022-12-05T14:59:00;101516.44;;;6.01;92.28
9695;BME280;4690;52.422;13.486;2022-12-05T15:01:45;101523.44;;;5.96;92.21
9695;BME280;4690;52.422;13.486;2022-12-05T15:04:26;101529.72;;;5.96;92.92
9695;BME280;4690;52.422;13.486;2022-12-05T15:07:02;101523.06;;;5.99;92.85
9695;BME280;4690;52.422;13.486;2022-12-05T15:12:42;101515.09;;;5.97;92.93
9695;BME280;4690;52.422;13.486;2022-12-05T15:15:16;101520.19;;;6.00;92.29
9695;BME280;4690;52.422;13.486;2022-12-05T15:17:59;101523.56;;;6.02;92.61
9695;BME280;4690;52.422;13.486;2022-12-05T15:23:47;101529.19;;;6.01;93.02
9695;BME280;4690;52.422;13.486;2022-12-05T15:26:25;101533.78;;;5.92;92.89
9695;BME280;4690;52.422;13.486;2022-12-05T15:31:59;101530.91;;;5.94;92.89
9695;BME280;4690;52.422;13.486;2022-12-05T15:37:34;101543.50;;;5.95;92.82
9695;BME280;4690;52.422;13.486;2022-12-05T15:40:10;101541.59;;;6.03;93.36
9695;BME280;4690;52.422;13.486;2022-12-05T15:42:43;101543.47;;;6.03;93.47
9695;BME280;4690;52.422;13.486;2022-12-05T15:47:47;101552.59;;;6.10;92.62
9695;BME280;4690;52.422;13.486;2022-12-05T15:50:57;101545.84;;;6.06;93.05
9695;BME280;4690;52.422;13.486;2022-12-05T15:53:40;101548.88;;;6.11;92.83
9695;BME280;4690;52.422;13.486;2022-12-05T15:56:32;101548.69;;;6.13;92.46
9695;BME280;4690;52.422;13.486;2022-12-05T15:59:18;101543.59;;;6.10;92.57
9695;BME280;4690;52.422;13.486;2022-12-05T16:01:51;101548.88;;;6.11;92.65
9695;BME280;4690;52.422;13.486;2022-12-05T16:04:44;101545.28;;;6.11;93.06
9695;BME280;4690;52.422;13.486;2022-12-05T16:07:13;101545.59;;;6.16;92.66
9695;BME280;4690;52.422;13.486;2022-12-05T16:09:42;101548.16;;;6.17;92.68
9695;BME280;4690;52.422;13.486;2022-12-05T16:12:33;101546.97;;;6.20;92.47
9695;BME280;4690;52.422;13.486;2022-12-05T16:15:12;101544.59;;;6.17;92.62
9695;BME280;4690;52.422;13.486;2022-12-05T16:17:47;101542.38;;;6.20;92.88
9695;BME280;4690;52.422;13.486;2022-12-05T16:22:49;101537.03;;;6.27;92.25
9695;BME280;4690;52.422;13.486;2022-12-05T16:25:21;101546.28;;;6.18;92.80
9695;BME280;4690;52.422;13.486;2022-12-05T16:28:19;101542.03;;;6.15;93.05
9695;BME280;4690;52.422;13.486;2022-12-05T16:31:15;101541.00;;;6.16;92.38
9695;BME280;4690;52.422;13.486;2022-12-05T16:33:42;101543.72;;;6.16;92.90
9695;BME280;4690;52.422;13.486;2022-12-05T16:36:12;101550.69;;;6.19;93.05
9695;BME280;4690;52.422;13.486;2022-12-05T16:38:39;101541.31;;;6.21;92.51
9695;BME280;4690;52.422;13.486;2022-12-05T16:41:08;101542.84;;;6.24;93.01